Arnold, Nebraska
Current Conditions -  °F | °C
As of 10:29 PM on Monday 22 Dec 2014 (Local Time) from KBBW Reporting Station
Light Snow Light Snow  
Wind Chill: 19°   Ceiling: 1900
Heat Index: 32°   Visibility: 5mi
Dew Point: 26°   Wind: 24mph
Humidity: 79%   Direction: 330°NNW
Pressure: 29.55"   Gusts: 33mph
Location:  41.42°N, 100.19°W
Report Text: KBBW 230429Z AUTO 33021G29KT 5SM -SN BKN019 BKN028 OVC055 00/M03 A2955 RMK AO2 PK WND 31030/0418 SNB15 P0000 T00001033
Loading
Personal Weather Stations






























Interactive Weather Map New forecast layout! Learn more

10-Day Weather Forecast

Advertisements
Track Severe Weather on mobile